createdAt,value
2019-05-05T00:01:16.609Z,1.53
2019-05-05T00:03:47.480Z,1.90
2019-05-05T00:06:14.661Z,1.40
2019-05-05T00:08:41.065Z,1.70
2019-05-05T00:11:21.172Z,1.52
2019-05-05T00:13:52.325Z,1.57
2019-05-05T00:16:20.481Z,2.00
2019-05-05T00:18:47.228Z,1.60
2019-05-05T00:21:15.099Z,1.52
2019-05-05T00:23:41.625Z,1.60
2019-05-05T00:26:07.973Z,1.80
2019-05-05T00:28:35.374Z,1.77
2019-05-05T00:31:01.775Z,1.98
2019-05-05T00:33:28.027Z,1.57
2019-05-05T00:35:54.594Z,1.90
2019-05-05T00:38:20.905Z,1.40
2019-05-05T00:40:47.249Z,1.80
2019-05-05T00:43:14.712Z,1.53
2019-05-05T00:45:42.539Z,1.80
2019-05-05T00:48:10.889Z,1.80
2019-05-05T00:50:37.233Z,1.70
2019-05-05T00:53:05.394Z,1.87
2019-05-05T00:55:31.835Z,1.60
2019-05-05T00:57:58.377Z,1.70
2019-05-05T01:00:44.363Z,1.67
2019-05-05T01:03:11.609Z,1.87
2019-05-05T01:05:39.929Z,1.77
2019-05-05T01:08:08.371Z,1.80
2019-05-05T01:10:35.376Z,1.80
2019-05-05T01:13:01.971Z,1.70
2019-05-05T01:15:28.393Z,1.80
2019-05-05T01:17:55.366Z,1.50
2019-05-05T01:20:21.810Z,1.60
2019-05-05T01:22:48.285Z,1.52
2019-05-05T01:25:15.001Z,1.80
2019-05-05T01:27:41.477Z,1.80
2019-05-05T01:30:11.921Z,1.70
2019-05-05T01:32:44.591Z,1.67
2019-05-05T01:35:11.065Z,1.60
2019-05-05T01:37:39.216Z,1.80
2019-05-05T01:40:24.754Z,1.70
2019-05-05T01:42:51.260Z,1.90
2019-05-05T01:45:17.705Z,1.70
2019-05-05T01:47:45.260Z,1.80
2019-05-05T01:50:20.448Z,1.63
2019-05-05T01:52:40.245Z,1.47
2019-05-05T01:55:06.882Z,1.50
2019-05-05T01:57:34.465Z,1.67
2019-05-05T02:00:00.972Z,1.80
2019-05-05T02:02:27.605Z,1.60
2019-05-05T02:04:55.395Z,1.70
2019-05-05T02:07:21.897Z,1.47
2019-05-05T02:09:48.253Z,1.50
2019-05-05T02:12:15.821Z,1.73
2019-05-05T02:14:44.397Z,1.60
2019-05-05T02:17:10.780Z,2.00
2019-05-05T02:19:37.224Z,1.73
2019-05-05T02:22:05.344Z,1.57
2019-05-05T02:24:32.090Z,1.80
2019-05-05T02:26:58.525Z,1.60
2019-05-05T02:29:26.881Z,1.80
2019-05-05T02:32:11.567Z,1.90
2019-05-05T02:34:39.797Z,1.75
2019-05-05T02:37:06.256Z,1.80
2019-05-05T02:39:35.222Z,1.87
2019-05-05T02:42:01.208Z,1.53
2019-05-05T02:44:28.159Z,1.90
2019-05-05T02:47:00.109Z,1.60
2019-05-05T02:49:27.542Z,1.70
2019-05-05T02:51:55.226Z,1.60
2019-05-05T02:54:24.727Z,1.70
2019-05-05T02:56:51.489Z,1.63
2019-05-05T02:59:23.760Z,2.00
2019-05-05T03:01:57.977Z,1.70
2019-05-05T03:04:25.325Z,1.50
2019-05-05T03:06:54.230Z,1.80
2019-05-05T03:09:25.113Z,2.00
2019-05-05T03:11:54.228Z,1.60
2019-05-05T03:14:23.696Z,1.70
2019-05-05T03:16:50.349Z,2.00
2019-05-05T03:19:17.481Z,1.70
2019-05-05T03:21:44.243Z,1.70
2019-05-05T03:24:11.146Z,1.60
2019-05-05T03:26:38.283Z,1.57
2019-05-05T03:29:09.823Z,1.70
2019-05-05T03:31:36.569Z,1.63
2019-05-05T03:34:05.960Z,2.00
2019-05-05T03:36:33.934Z,1.72
2019-05-05T03:39:01.026Z,1.80
2019-05-05T03:41:29.964Z,1.93
2019-05-05T03:44:07.049Z,1.70
2019-05-05T03:46:34.530Z,1.60
2019-05-05T03:49:01.029Z,1.50
2019-05-05T03:51:28.044Z,1.67
2019-05-05T03:53:54.685Z,1.57
2019-05-05T03:56:21.131Z,1.60
2019-05-05T03:58:48.484Z,1.55
2019-05-05T04:01:35.929Z,1.40
2019-05-05T04:04:20.855Z,1.47
2019-05-05T04:06:49.072Z,1.10
2019-05-05T04:09:15.517Z,1.27
2019-05-05T04:11:41.982Z,1.30
2019-05-05T04:14:08.317Z,1.10
2019-05-05T04:16:36.461Z,0.97
2019-05-05T04:19:04.809Z,1.10
2019-05-05T04:21:36.056Z,1.10
2019-05-05T04:23:59.541Z,1.05
2019-05-05T04:26:25.781Z,1.00
2019-05-05T04:28:54.037Z,1.17
2019-05-05T04:31:20.311Z,1.10
2019-05-05T04:33:46.654Z,1.07
2019-05-05T04:36:14.467Z,0.90
2019-05-05T04:38:41.086Z,0.97
2019-05-05T04:41:07.732Z,1.02
2019-05-05T04:43:33.963Z,1.10
2019-05-05T04:46:00.215Z,1.17
2019-05-05T04:48:43.964Z,1.00
2019-05-05T04:51:13.897Z,1.12
2019-05-05T04:53:43.831Z,0.95
2019-05-05T04:56:10.096Z,1.00
2019-05-05T04:58:36.367Z,0.90
2019-05-05T05:01:04.652Z,1.10
2019-05-05T05:03:34.686Z,1.10
2019-05-05T05:06:08.761Z,0.90
2019-05-05T05:08:35.193Z,1.10
2019-05-05T05:11:03.510Z,1.10
2019-05-05T05:13:29.771Z,0.90
2019-05-05T05:15:56.009Z,1.10
2019-05-05T05:18:24.044Z,1.07
2019-05-05T05:20:50.612Z,1.10
2019-05-05T05:23:16.852Z,0.95
2019-05-05T05:25:43.824Z,0.95
2019-05-05T05:28:10.471Z,0.88
2019-05-05T05:30:36.941Z,1.00
2019-05-05T05:33:04.312Z,1.02
2019-05-05T05:35:31.096Z,1.02
2019-05-05T05:37:57.699Z,1.00
2019-05-05T05:40:38.165Z,1.00
2019-05-05T05:43:06.514Z,1.10
2019-05-05T05:45:40.558Z,0.93
2019-05-05T05:48:11.844Z,1.10
2019-05-05T05:50:55.033Z,0.90
2019-05-05T05:53:21.509Z,1.12
2019-05-05T05:55:48.020Z,0.98
2019-05-05T05:58:14.255Z,0.82
2019-05-05T06:00:44.090Z,0.95
2019-05-05T06:03:09.987Z,1.20
2019-05-05T06:05:36.305Z,0.98
2019-05-05T06:08:04.523Z,0.95
2019-05-05T06:10:30.934Z,1.55
2019-05-05T06:12:57.283Z,1.00
2019-05-05T06:15:24.437Z,1.10
2019-05-05T06:17:50.973Z,0.93
2019-05-05T06:20:17.318Z,1.12
2019-05-05T06:22:44.707Z,1.07
2019-05-05T06:25:11.158Z,0.98
2019-05-05T06:27:37.989Z,1.10
2019-05-05T06:30:05.599Z,0.95
2019-05-05T06:32:34.128Z,1.20
2019-05-05T06:35:00.165Z,0.95
2019-05-05T06:37:26.412Z,0.95
2019-05-05T06:39:54.689Z,0.90
2019-05-05T06:42:25.549Z,1.12
2019-05-05T06:44:59.818Z,1.07
2019-05-05T06:47:26.902Z,1.17
2019-05-05T06:49:54.217Z,1.17
2019-05-05T06:52:20.621Z,1.20
2019-05-05T06:54:46.884Z,0.90
2019-05-05T06:57:13.850Z,1.10
2019-05-05T06:59:40.291Z,1.50
2019-05-05T07:02:07.003Z,1.02
2019-05-05T07:04:34.010Z,1.00
2019-05-05T07:07:00.601Z,1.10
2019-05-05T07:09:27.053Z,1.22
2019-05-05T07:11:54.110Z,1.07
2019-05-05T07:14:20.686Z,1.12
2019-05-05T07:16:47.134Z,1.00
2019-05-05T07:19:14.716Z,1.00
2019-05-05T07:21:41.213Z,0.90
2019-05-05T07:24:07.769Z,1.17
2019-05-05T07:26:34.221Z,1.10
2019-05-05T07:29:00.687Z,1.00
2019-05-05T07:31:27.048Z,1.20
2019-05-05T07:33:54.500Z,1.00
2019-05-05T07:36:33.903Z,1.00
2019-05-05T07:39:00.125Z,0.90
2019-05-05T07:41:26.601Z,0.90
2019-05-05T07:43:54.229Z,1.00
2019-05-05T07:46:20.651Z,1.02
2019-05-05T07:48:47.034Z,1.40
2019-05-05T07:51:14.109Z,1.10
2019-05-05T07:53:40.613Z,1.10
2019-05-05T07:56:07.723Z,1.20
2019-05-05T07:58:34.585Z,1.25
2019-05-05T08:01:01.089Z,1.20
2019-05-05T08:03:27.445Z,1.35
2019-05-05T08:05:54.534Z,0.82
2019-05-05T08:08:20.957Z,1.45
2019-05-05T08:10:47.409Z,1.37
2019-05-05T08:13:14.240Z,1.40
2019-05-05T08:15:54.539Z,1.22
2019-05-05T08:18:15.324Z,1.00
2019-05-05T08:20:44.341Z,1.10
2019-05-05T08:23:28.567Z,1.30
2019-05-05T08:25:59.488Z,1.67
2019-05-05T08:28:27.824Z,1.05
2019-05-05T08:31:03.790Z,1.30
2019-05-05T08:33:29.905Z,1.37
2019-05-05T08:35:56.164Z,1.30
2019-05-05T08:38:24.248Z,1.10
2019-05-05T08:40:50.647Z,1.55
2019-05-05T08:43:16.992Z,1.30
2019-05-05T08:45:44.372Z,1.25
2019-05-05T08:48:10.890Z,1.37
2019-05-05T08:50:37.146Z,1.07
2019-05-05T08:53:04.505Z,1.45
2019-05-05T08:55:33.829Z,1.10
2019-05-05T08:57:59.901Z,1.37
2019-05-05T09:00:26.365Z,1.30
2019-05-05T09:02:54.356Z,1.57
2019-05-05T09:05:20.833Z,1.70
2019-05-05T09:07:47.833Z,1.72
2019-05-05T09:10:14.464Z,1.25
2019-05-05T09:12:40.908Z,1.37
2019-05-05T09:15:07.852Z,1.42
2019-05-05T09:17:34.222Z,1.45
2019-05-05T09:20:00.665Z,1.55
2019-05-05T09:22:27.110Z,1.47
2019-05-05T09:24:57.977Z,1.30
2019-05-05T09:27:33.906Z,1.70
2019-05-05T09:30:00.277Z,1.32
2019-05-05T09:32:26.821Z,1.47
2019-05-05T09:34:54.084Z,1.40
2019-05-05T09:37:20.540Z,1.10
2019-05-05T09:39:46.965Z,1.30
2019-05-05T09:42:14.538Z,1.40
2019-05-05T09:44:41.189Z,1.60
2019-05-05T09:47:07.553Z,1.55
2019-05-05T09:49:34.153Z,1.17
2019-05-05T09:52:00.495Z,1.20
2019-05-05T09:54:26.933Z,1.30
2019-05-05T09:56:53.901Z,1.22
2019-05-05T09:59:20.397Z,1.10
2019-05-05T10:01:46.872Z,1.27
2019-05-05T10:04:13.923Z,1.20
2019-05-05T10:06:40.390Z,1.87
2019-05-05T10:09:08.725Z,1.45
2019-05-05T10:11:35.502Z,1.10
2019-05-05T10:14:03.869Z,1.20
2019-05-05T10:16:30.177Z,1.40
2019-05-05T10:18:56.651Z,1.55
2019-05-05T10:21:24.647Z,1.25
2019-05-05T10:23:54.061Z,1.12
2019-05-05T10:26:20.493Z,1.20
2019-05-05T10:28:46.746Z,1.20
2019-05-05T10:31:13.817Z,1.17
2019-05-05T10:33:42.233Z,1.17
2019-05-05T10:36:08.762Z,1.17
2019-05-05T10:38:37.101Z,1.45
2019-05-05T10:41:04.251Z,1.25
2019-05-05T10:43:30.772Z,1.30
2019-05-05T10:45:57.226Z,1.30
2019-05-05T10:48:23.764Z,1.10
2019-05-05T10:50:50.188Z,1.37
2019-05-05T10:53:16.441Z,1.35
2019-05-05T10:55:44.846Z,1.50
2019-05-05T10:58:11.053Z,1.35
2019-05-05T11:00:44.521Z,1.10
2019-05-05T11:03:11.081Z,1.40
2019-05-05T11:05:37.553Z,1.10
2019-05-05T11:08:04.405Z,1.55
2019-05-05T11:10:33.941Z,1.37
2019-05-05T11:13:00.417Z,1.20
2019-05-05T11:15:26.861Z,1.55
2019-05-05T11:17:54.237Z,1.70
2019-05-05T11:20:20.918Z,1.67
2019-05-05T11:22:47.259Z,1.60
2019-05-05T11:25:13.967Z,1.40
2019-05-05T11:27:40.569Z,1.45
2019-05-05T11:30:26.782Z,1.45
2019-05-05T11:33:10.849Z,1.50
2019-05-05T11:35:47.821Z,1.40
2019-05-05T11:38:14.290Z,1.55
2019-05-05T11:40:40.927Z,1.22
2019-05-05T11:43:07.365Z,1.50
2019-05-05T11:45:34.477Z,1.60
2019-05-05T11:48:00.752Z,1.85
2019-05-05T11:50:27.482Z,1.22
2019-05-05T11:52:54.497Z,1.50
2019-05-05T11:55:21.041Z,1.60
2019-05-05T11:57:47.577Z,1.62
2019-05-05T12:00:14.259Z,1.50
2019-05-05T12:02:40.517Z,1.35
2019-05-05T12:05:07.049Z,1.47
2019-05-05T12:07:34.217Z,1.20
2019-05-05T12:10:00.464Z,1.32
2019-05-05T12:12:26.830Z,1.40
2019-05-05T12:14:54.051Z,1.72
2019-05-05T12:17:35.538Z,1.52
2019-05-05T12:20:07.345Z,1.55
2019-05-05T12:22:34.074Z,1.67
2019-05-05T12:25:04.125Z,1.40
2019-05-05T12:27:33.913Z,1.40
2019-05-05T12:30:03.239Z,1.45
2019-05-05T12:32:29.599Z,1.55
2019-05-05T12:34:55.846Z,1.50
2019-05-05T12:37:23.667Z,1.40
2019-05-05T12:39:50.038Z,1.40
2019-05-05T12:42:16.373Z,1.30
2019-05-05T12:44:44.524Z,1.42
2019-05-05T12:47:15.933Z,1.35
2019-05-05T12:49:43.901Z,1.45
2019-05-05T12:52:10.445Z,1.60
2019-05-05T12:54:36.933Z,1.57
2019-05-05T12:57:04.383Z,1.70
2019-05-05T12:59:30.748Z,1.67
2019-05-05T13:01:57.218Z,1.30
2019-05-05T13:04:24.580Z,1.60
2019-05-05T13:06:51.106Z,1.40
2019-05-05T13:09:19.238Z,1.45
2019-05-05T13:11:45.577Z,1.95
2019-05-05T13:14:14.127Z,1.40
2019-05-05T13:16:52.064Z,1.70
2019-05-05T13:19:10.214Z,1.57
2019-05-05T13:21:55.122Z,1.70
2019-05-05T13:24:29.319Z,1.87
2019-05-05T13:27:08.763Z,1.45
2019-05-05T13:29:33.732Z,1.50
2019-05-05T13:32:00.137Z,1.47
2019-05-05T13:34:26.717Z,1.50
2019-05-05T13:36:53.161Z,1.75
2019-05-05T13:39:19.711Z,1.80
2019-05-05T13:41:46.058Z,1.57
2019-05-05T13:44:14.816Z,1.17
2019-05-05T13:46:41.706Z,1.32
2019-05-05T13:49:18.913Z,1.60
2019-05-05T13:51:45.344Z,1.52
2019-05-05T13:54:13.561Z,1.40
2019-05-05T13:56:39.949Z,1.80
2019-05-05T13:59:06.281Z,1.30
2019-05-05T14:01:34.220Z,1.50
2019-05-05T14:04:00.689Z,1.45
2019-05-05T14:06:26.948Z,1.60
2019-05-05T14:08:54.085Z,1.45
2019-05-05T14:11:20.632Z,1.40
2019-05-05T14:13:48.476Z,1.52
2019-05-05T14:16:14.981Z,1.40
2019-05-05T14:18:41.537Z,1.50
2019-05-05T14:21:07.875Z,1.57
2019-05-05T14:23:36.122Z,1.60
2019-05-05T14:26:03.865Z,1.30
2019-05-05T14:28:30.217Z,1.25
2019-05-05T14:31:01.075Z,1.40
2019-05-05T14:33:29.520Z,1.85
2019-05-05T14:35:57.746Z,1.37
2019-05-05T14:38:41.085Z,1.40
2019-05-05T14:41:07.629Z,1.40
2019-05-05T14:43:34.521Z,1.65
2019-05-05T14:46:01.118Z,1.90
2019-05-05T14:48:27.549Z,1.45
2019-05-05T14:50:54.385Z,1.32
2019-05-05T14:53:20.878Z,1.50
2019-05-05T14:55:47.319Z,1.37
2019-05-05T14:58:14.354Z,1.40
2019-05-05T15:00:41.018Z,1.62
2019-05-05T15:03:07.261Z,1.20
2019-05-05T15:05:35.477Z,1.40
2019-05-05T15:08:04.188Z,1.70
2019-05-05T15:10:47.189Z,1.70
2019-05-05T15:13:14.828Z,1.37
2019-05-05T15:15:41.348Z,1.52
2019-05-05T15:18:07.815Z,1.40
2019-05-05T15:20:36.526Z,1.70
2019-05-05T15:23:04.604Z,1.30
2019-05-05T15:25:30.606Z,1.60
2019-05-05T15:27:56.955Z,1.40
2019-05-05T15:30:26.839Z,1.30
2019-05-05T15:32:51.537Z,1.50
2019-05-05T15:35:18.089Z,1.40
2019-05-05T15:37:44.419Z,1.40
2019-05-05T15:40:11.157Z,1.60
2019-05-05T15:42:37.685Z,1.40
2019-05-05T15:45:04.380Z,1.50
2019-05-05T15:47:30.729Z,1.90
2019-05-05T15:49:56.985Z,1.57
2019-05-05T15:52:24.318Z,1.65
2019-05-05T15:54:50.717Z,1.35
2019-05-05T15:57:18.266Z,1.70
2019-05-05T15:59:44.801Z,1.37
2019-05-05T16:02:11.145Z,1.32
2019-05-05T16:04:37.498Z,1.90
2019-05-05T16:07:04.605Z,1.60
2019-05-05T16:09:31.145Z,1.60
2019-05-05T16:11:57.589Z,1.77
2019-05-05T16:14:24.333Z,1.67
2019-05-05T16:16:56.044Z,1.47
2019-05-05T16:19:40.993Z,1.60
2019-05-05T16:22:11.854Z,1.67
2019-05-05T16:24:40.126Z,1.50
2019-05-05T16:27:18.779Z,1.70
2019-05-05T16:29:34.789Z,1.65
2019-05-05T16:32:01.011Z,1.70
2019-05-05T16:34:27.445Z,1.75
2019-05-05T16:36:54.488Z,1.52
2019-05-05T16:39:21.723Z,1.40
2019-05-05T16:41:48.173Z,1.20
2019-05-05T16:44:15.801Z,1.40
2019-05-05T16:46:43.462Z,1.50
2019-05-05T16:49:10.058Z,1.75
2019-05-05T16:51:38.285Z,1.25
2019-05-05T16:54:06.540Z,1.10
2019-05-05T16:56:33.656Z,1.25
2019-05-05T16:58:59.901Z,1.47
2019-05-05T17:01:26.541Z,1.60
2019-05-05T17:03:54.256Z,1.52
2019-05-05T17:06:20.662Z,1.80
2019-05-05T17:08:47.092Z,1.70
2019-05-05T17:11:14.968Z,1.35
2019-05-05T17:13:46.376Z,1.60
2019-05-05T17:16:20.253Z,1.40
2019-05-05T17:19:04.454Z,1.35
2019-05-05T17:21:51.086Z,1.65
2019-05-05T17:24:17.420Z,1.70
2019-05-05T17:26:43.924Z,1.30
2019-05-05T17:29:10.325Z,1.35
2019-05-05T17:31:36.770Z,1.37
2019-05-05T17:34:04.174Z,1.37
2019-05-05T17:36:30.601Z,1.60
2019-05-05T17:38:57.042Z,1.60
2019-05-05T17:41:25.198Z,1.85
2019-05-05T17:43:59.240Z,1.20
2019-05-05T17:46:36.337Z,1.40
2019-05-05T17:49:24.938Z,1.10
2019-05-05T17:51:51.557Z,1.30
2019-05-05T17:54:19.712Z,1.20
2019-05-05T17:56:45.953Z,1.50
2019-05-05T17:59:13.992Z,1.22
2019-05-05T18:01:40.427Z,1.30
2019-05-05T18:04:07.016Z,1.20
2019-05-05T18:06:35.341Z,1.27
2019-05-05T18:09:09.614Z,1.25
2019-05-05T18:11:40.733Z,1.32
2019-05-05T18:14:11.794Z,1.10
2019-05-05T18:16:38.222Z,1.12
2019-05-05T18:19:04.665Z,1.25
2019-05-05T18:21:32.260Z,1.17
2019-05-05T18:23:59.226Z,0.80
2019-05-05T18:26:25.725Z,1.25
2019-05-05T18:28:53.920Z,1.20
2019-05-05T18:31:20.252Z,1.22
2019-05-05T18:33:46.494Z,1.60
2019-05-05T18:36:14.155Z,1.22
2019-05-05T18:38:40.597Z,1.45
2019-05-05T18:41:08.841Z,1.32
2019-05-05T18:43:37.285Z,1.20
2019-05-05T18:46:04.735Z,1.12
2019-05-05T18:48:31.313Z,1.20
2019-05-05T18:50:58.045Z,1.42
2019-05-05T18:53:24.487Z,1.17
2019-05-05T18:55:50.848Z,1.12
2019-05-05T18:58:27.418Z,1.20
2019-05-05T19:00:47.334Z,1.20
2019-05-05T19:03:20.712Z,0.98
2019-05-05T19:05:51.133Z,0.90
2019-05-05T19:08:19.669Z,1.20
2019-05-05T19:10:46.113Z,1.00
2019-05-05T19:13:13.626Z,1.12
2019-05-05T19:15:40.284Z,1.30
2019-05-05T19:18:06.796Z,1.25
2019-05-05T19:20:35.290Z,0.95
2019-05-05T19:23:05.737Z,1.07
2019-05-05T19:25:31.136Z,1.00
2019-05-05T19:27:57.385Z,1.20
2019-05-05T19:30:25.690Z,1.30
2019-05-05T19:32:54.086Z,1.10
2019-05-05T19:35:20.481Z,0.95
2019-05-05T19:37:46.953Z,1.37
2019-05-05T19:40:14.192Z,1.30
2019-05-05T19:42:40.649Z,1.10
2019-05-05T19:45:07.403Z,1.00
2019-05-05T19:47:34.113Z,1.02
2019-05-05T19:50:08.046Z,1.10
2019-05-05T19:52:34.898Z,1.00
2019-05-05T19:55:01.142Z,1.20
2019-05-05T19:57:27.589Z,1.10
2019-05-05T19:59:54.289Z,1.20
2019-05-05T20:02:20.587Z,1.37
2019-05-05T20:04:46.836Z,1.47
2019-05-05T20:07:13.955Z,1.20
2019-05-05T20:09:40.343Z,1.30
2019-05-05T20:12:06.705Z,1.07
2019-05-05T20:14:34.223Z,1.10
2019-05-05T20:17:20.641Z,0.95
2019-05-05T20:19:47.081Z,1.30
2019-05-05T20:22:14.729Z,1.42
2019-05-05T20:24:41.272Z,1.10
2019-05-05T20:27:07.924Z,1.10
2019-05-05T20:29:37.203Z,1.10
2019-05-05T20:32:04.310Z,1.30
2019-05-05T20:34:38.468Z,1.10
2019-05-05T20:37:18.784Z,1.00
2019-05-05T20:39:45.137Z,1.50
2019-05-05T20:42:11.580Z,1.20
2019-05-05T20:44:38.019Z,1.12
2019-05-05T20:47:05.100Z,1.10
2019-05-05T20:49:31.636Z,1.42
2019-05-05T20:51:58.085Z,1.10
2019-05-05T20:54:24.641Z,1.17
2019-05-05T20:56:50.981Z,1.30
2019-05-05T20:59:27.601Z,1.35
2019-05-05T21:01:45.502Z,1.50
2019-05-05T21:04:13.961Z,1.17
2019-05-05T21:06:40.117Z,1.30
2019-05-05T21:09:07.081Z,1.30
2019-05-05T21:11:33.524Z,1.22
2019-05-05T21:13:59.934Z,1.40
2019-05-05T21:16:26.193Z,1.10
2019-05-05T21:18:53.939Z,1.30
2019-05-05T21:21:22.273Z,1.30
2019-05-05T21:23:50.413Z,1.32
2019-05-05T21:26:18.662Z,1.42
2019-05-05T21:28:44.903Z,1.50
2019-05-05T21:31:11.372Z,1.22
2019-05-05T21:33:37.710Z,1.30
2019-05-05T21:36:04.369Z,1.00
2019-05-05T21:38:30.705Z,1.22
2019-05-05T21:40:57.149Z,1.47
2019-05-05T21:43:23.409Z,1.25
2019-05-05T21:45:49.650Z,1.32
2019-05-05T21:48:15.892Z,1.50
2019-05-05T21:50:44.140Z,1.45
2019-05-05T21:53:30.728Z,1.30
2019-05-05T21:56:07.686Z,1.45
2019-05-05T21:58:36.051Z,1.40
2019-05-05T22:01:07.713Z,1.30
2019-05-05T22:03:35.962Z,1.17
2019-05-05T22:06:03.704Z,1.65
2019-05-05T22:08:30.244Z,1.30
2019-05-05T22:10:56.770Z,1.20
2019-05-05T22:13:23.122Z,1.45
2019-05-05T22:15:49.464Z,1.50
2019-05-05T22:18:16.108Z,1.47
2019-05-05T22:20:47.253Z,1.25
2019-05-05T22:23:14.554Z,1.27
2019-05-05T22:25:40.868Z,1.20
2019-05-05T22:28:07.225Z,1.30
2019-05-05T22:30:35.165Z,1.40
2019-05-05T22:33:01.549Z,1.40
2019-05-05T22:35:27.895Z,1.20
2019-05-05T22:37:54.132Z,1.32
2019-05-05T22:40:24.158Z,1.70
2019-05-05T22:42:50.134Z,1.37
2019-05-05T22:45:16.669Z,1.40
2019-05-05T22:47:43.107Z,1.50
2019-05-05T22:50:09.762Z,1.20
2019-05-05T22:52:36.155Z,1.20
2019-05-05T22:55:06.661Z,1.25
2019-05-05T22:57:34.447Z,1.60
2019-05-05T23:00:03.630Z,1.55
2019-05-05T23:02:33.815Z,1.22
2019-05-05T23:05:01.534Z,1.47
2019-05-05T23:07:29.776Z,1.25
2019-05-05T23:09:56.229Z,1.45
2019-05-05T23:12:24.407Z,1.40
2019-05-05T23:14:51.340Z,1.37
2019-05-05T23:17:26.220Z,1.62
2019-05-05T23:20:08.644Z,1.35
2019-05-05T23:22:51.656Z,1.50
2019-05-05T23:25:24.179Z,1.50
2019-05-05T23:27:50.449Z,1.55
2019-05-05T23:30:18.692Z,1.57
2019-05-05T23:32:46.008Z,1.60
2019-05-05T23:35:14.286Z,1.52
2019-05-05T23:37:40.648Z,1.40
2019-05-05T23:40:07.284Z,1.47
2019-05-05T23:42:33.810Z,1.62
2019-05-05T23:45:00.290Z,1.57
2019-05-05T23:47:26.649Z,1.55
2019-05-05T23:49:53.758Z,1.40
2019-05-05T23:52:20.238Z,1.37
2019-05-05T23:54:46.680Z,1.70
2019-05-05T23:57:13.779Z,1.60
2019-05-05T23:59:40.069Z,1.62
